createdAt,value
2018-09-01T00:02:21.003Z,100984.00
2018-09-01T00:04:51.454Z,100982.00
2018-09-01T00:07:23.337Z,100985.00
2018-09-01T00:09:54.181Z,100976.00
2018-09-01T00:12:25.142Z,100981.00
2018-09-01T00:14:55.462Z,100982.00
2018-09-01T00:17:31.140Z,100971.00
2018-09-01T00:20:03.300Z,100976.00
2018-09-01T00:22:33.250Z,100976.00
2018-09-01T00:25:03.247Z,100982.00
2018-09-01T00:27:33.949Z,100976.00
2018-09-01T00:30:04.172Z,100973.00
2018-09-01T00:32:34.252Z,100978.00
2018-09-01T00:35:04.522Z,100979.00
2018-09-01T00:37:39.713Z,100983.00
2018-09-01T00:40:09.829Z,100976.00
2018-09-01T00:42:40.279Z,100989.00
2018-09-01T00:45:10.325Z,100985.00
2018-09-01T00:47:40.855Z,100984.00
2018-09-01T00:50:11.093Z,100985.00
2018-09-01T00:52:41.164Z,100990.00
2018-09-01T00:55:17.147Z,100985.00
2018-09-01T00:57:47.617Z,100985.00
2018-09-01T01:00:17.720Z,100989.00
2018-09-01T01:02:49.436Z,100988.00
2018-09-01T01:05:19.639Z,100991.00
2018-09-01T01:07:50.151Z,100990.00
2018-09-01T01:10:20.562Z,100993.00
2018-09-01T01:12:50.806Z,100994.00
2018-09-01T01:15:21.021Z,100988.00
2018-09-01T01:17:51.156Z,100991.00
2018-09-01T01:20:21.681Z,100990.00
2018-09-01T01:22:52.242Z,100987.00
2018-09-01T01:25:22.651Z,100989.00
2018-09-01T01:27:53.310Z,100992.00
2018-09-01T01:30:23.663Z,100994.00
2018-09-01T01:32:54.368Z,100994.00
2018-09-01T01:35:25.543Z,100995.00
2018-09-01T01:37:55.720Z,100988.00
2018-09-01T01:40:25.904Z,100993.00
2018-09-01T01:42:56.682Z,100985.00
2018-09-01T01:45:29.459Z,100984.00
2018-09-01T01:48:00.151Z,100985.00
2018-09-01T01:50:30.428Z,100986.00
2018-09-01T01:53:00.581Z,100992.00
2018-09-01T01:55:30.991Z,100983.00
2018-09-01T01:58:01.354Z,100991.00
2018-09-01T02:00:31.570Z,100990.00
2018-09-01T02:03:01.589Z,100991.00
2018-09-01T02:05:35.999Z,100992.00
2018-09-01T02:08:06.237Z,100986.00
2018-09-01T02:10:36.287Z,100997.00
2018-09-01T02:13:06.631Z,101003.00
2018-09-01T02:15:36.837Z,100994.00
2018-09-01T02:18:07.693Z,100995.00
2018-09-01T02:20:38.077Z,101001.00
2018-09-01T02:23:08.454Z,100997.00
2018-09-01T02:25:39.303Z,101019.00
2018-09-01T02:28:09.715Z,100994.00
2018-09-01T02:30:40.117Z,101004.00
2018-09-01T02:33:10.886Z,101006.00
2018-09-01T02:35:42.218Z,101014.00
2018-09-01T02:38:12.276Z,101004.00
2018-09-01T02:40:42.463Z,101009.00
2018-09-01T02:43:12.571Z,101017.00
2018-09-01T02:45:43.012Z,101014.00
2018-09-01T02:48:13.386Z,101017.00
2018-09-01T02:50:43.701Z,101019.00
2018-09-01T02:53:20.822Z,101028.00
2018-09-01T02:55:52.101Z,101026.00
2018-09-01T02:58:22.202Z,101026.00
2018-09-01T03:00:57.392Z,101031.00
2018-09-01T03:03:27.537Z,101026.00
2018-09-01T03:05:57.975Z,101039.00
2018-09-01T03:08:28.035Z,101042.00
2018-09-01T03:10:58.307Z,101031.00
2018-09-01T03:13:30.358Z,101028.00
2018-09-01T03:16:00.644Z,101034.00
2018-09-01T03:18:30.964Z,101042.00
2018-09-01T03:21:01.256Z,101033.00
2018-09-01T03:23:31.447Z,101036.00
2018-09-01T03:26:01.946Z,101036.00
2018-09-01T03:28:32.393Z,101039.00
2018-09-01T03:31:02.642Z,101035.00
2018-09-01T03:33:32.530Z,100950.00
2018-09-01T03:36:03.543Z,101034.00
2018-09-01T03:38:34.024Z,101040.00
2018-09-01T03:41:04.335Z,101031.00
2018-09-01T03:43:34.386Z,101034.00
2018-09-01T03:46:04.389Z,101033.00
2018-09-01T03:48:34.799Z,101043.00
2018-09-01T03:51:04.911Z,101036.00
2018-09-01T03:53:35.524Z,101040.00
2018-09-01T03:56:05.564Z,101035.00
2018-09-01T03:58:35.863Z,101033.00
2018-09-01T04:01:06.090Z,101028.00
2018-09-01T04:03:36.609Z,101028.00
2018-09-01T04:06:07.187Z,101027.00
2018-09-01T04:08:37.335Z,101034.00
2018-09-01T04:11:07.885Z,101034.00
2018-09-01T04:13:38.061Z,101028.00
2018-09-01T04:16:08.235Z,101027.00
2018-09-01T04:18:38.592Z,101024.00
2018-09-01T04:21:08.788Z,101028.00
2018-09-01T04:23:38.842Z,101031.00
2018-09-01T04:26:09.046Z,101024.00
2018-09-01T04:28:39.320Z,101024.00
2018-09-01T04:31:09.421Z,101030.00
2018-09-01T04:33:39.842Z,101035.00
2018-09-01T04:36:09.964Z,101030.00
2018-09-01T04:38:40.007Z,101031.00
2018-09-01T04:41:10.461Z,101035.00
2018-09-01T04:43:40.800Z,101028.00
2018-09-01T04:46:10.980Z,101033.00
2018-09-01T04:48:41.454Z,101035.00
2018-09-01T04:51:11.570Z,101034.00
2018-09-01T04:53:41.664Z,101040.00
2018-09-01T04:56:12.399Z,101034.00
2018-09-01T04:58:42.860Z,101035.00
2018-09-01T05:01:12.965Z,101037.00
2018-09-01T05:03:43.121Z,101037.00
2018-09-01T05:06:14.109Z,101039.00
2018-09-01T05:08:44.542Z,101049.00
2018-09-01T05:11:15.074Z,101043.00
2018-09-01T05:13:45.178Z,101055.00
2018-09-01T05:16:15.435Z,101048.00
2018-09-01T05:18:46.845Z,101050.00
2018-09-01T05:21:17.120Z,101047.00
2018-09-01T05:23:47.368Z,101051.00
2018-09-01T05:26:17.497Z,101052.00
2018-09-01T05:28:48.402Z,101045.00
2018-09-01T05:31:18.580Z,101039.00
2018-09-01T05:33:49.003Z,101056.00
2018-09-01T05:36:19.442Z,101060.00
2018-09-01T05:38:49.939Z,101055.00
2018-09-01T05:41:20.158Z,101050.00
2018-09-01T05:43:51.163Z,101050.00
2018-09-01T05:46:21.123Z,101051.00
2018-09-01T05:48:51.098Z,101049.00
2018-09-01T05:51:21.544Z,101054.00
2018-09-01T05:53:51.892Z,101052.00
2018-09-01T05:56:22.136Z,101056.00
2018-09-01T05:58:52.206Z,101062.00
2018-09-01T06:01:22.650Z,101071.00
2018-09-01T06:03:52.710Z,101065.00
2018-09-01T06:06:22.968Z,101064.00
2018-09-01T06:08:53.180Z,101062.00
2018-09-01T06:11:23.478Z,101060.00
2018-09-01T06:13:53.528Z,101064.00
2018-09-01T06:16:23.605Z,101054.00
2018-09-01T06:18:53.809Z,101061.00
2018-09-01T06:21:24.260Z,101062.00
2018-09-01T06:23:54.373Z,101072.00
2018-09-01T06:26:24.560Z,101061.00
2018-09-01T06:29:16.996Z,101077.00
2018-09-01T06:31:57.889Z,101078.00
2018-09-01T06:34:28.193Z,101073.00
2018-09-01T06:36:58.517Z,101075.00
2018-09-01T06:39:28.866Z,101072.00
2018-09-01T06:41:58.918Z,101069.00
2018-09-01T06:44:30.231Z,101069.00
2018-09-01T06:47:00.420Z,101069.00
2018-09-01T06:49:31.402Z,101069.00
2018-09-01T06:52:01.770Z,101077.00
2018-09-01T06:54:32.255Z,101080.00
2018-09-01T06:57:02.780Z,101084.00
2018-09-01T06:59:32.873Z,101084.00
2018-09-01T07:02:02.952Z,101085.00
2018-09-01T07:04:33.272Z,101086.00
2018-09-01T07:07:03.436Z,101095.00
2018-09-01T07:09:33.740Z,101090.00
2018-09-01T07:12:03.790Z,101091.00
2018-09-01T07:14:34.244Z,101089.00
2018-09-01T07:17:04.902Z,101096.00
2018-09-01T07:19:34.978Z,101101.00
2018-09-01T07:22:05.154Z,101094.00
2018-09-01T07:24:35.254Z,101111.00
2018-09-01T07:27:06.414Z,101111.00
2018-09-01T07:29:36.606Z,101116.00
2018-09-01T07:32:07.013Z,101112.00
2018-09-01T07:34:37.055Z,101122.00
2018-09-01T07:37:07.388Z,101123.00
2018-09-01T07:39:37.450Z,101117.00
2018-09-01T07:42:08.642Z,101115.00
2018-09-01T07:44:39.547Z,101121.00
2018-09-01T07:47:09.660Z,101117.00
2018-09-01T07:49:40.126Z,101120.00
2018-09-01T07:52:10.429Z,101128.00
2018-09-01T07:54:40.925Z,101130.00
2018-09-01T07:57:11.200Z,101128.00
2018-09-01T07:59:41.263Z,101125.00
2018-09-01T08:02:12.291Z,101122.00
2018-09-01T08:04:42.527Z,101126.00
2018-09-01T08:07:13.351Z,101116.00
2018-09-01T08:09:45.549Z,101123.00
2018-09-01T08:12:15.900Z,101123.00
2018-09-01T08:14:46.139Z,101122.00
2018-09-01T08:17:17.065Z,101133.00
2018-09-01T08:19:47.353Z,101144.00
2018-09-01T08:22:18.517Z,101139.00
2018-09-01T08:24:48.764Z,101147.00
2018-09-01T08:27:19.317Z,101144.00
2018-09-01T08:29:49.320Z,101139.00
2018-09-01T08:32:19.598Z,101136.00
2018-09-01T08:34:50.033Z,101129.00
2018-09-01T08:37:20.343Z,101141.00
2018-09-01T08:39:50.491Z,101139.00
2018-09-01T08:42:20.641Z,101140.00
2018-09-01T08:44:50.889Z,101148.00
2018-09-01T08:47:21.222Z,101148.00
2018-09-01T08:49:52.184Z,101156.00
2018-09-01T08:52:22.120Z,101148.00
2018-09-01T08:54:52.374Z,101153.00
2018-09-01T08:57:23.769Z,101153.00
2018-09-01T08:59:54.131Z,101146.00
2018-09-01T09:02:24.411Z,101148.00
2018-09-01T09:04:54.775Z,101150.00
2018-09-01T09:07:25.125Z,101144.00
2018-09-01T09:10:01.928Z,101149.00
2018-09-01T09:12:32.936Z,101154.00
2018-09-01T09:15:04.229Z,101155.00
2018-09-01T09:17:34.222Z,101149.00
2018-09-01T09:20:05.209Z,101150.00
2018-09-01T09:22:35.481Z,101155.00
2018-09-01T09:25:05.790Z,101164.00
2018-09-01T09:27:35.999Z,101156.00
2018-09-01T09:30:07.015Z,101152.00
2018-09-01T09:32:37.055Z,101153.00
2018-09-01T09:35:07.103Z,101149.00
2018-09-01T09:37:37.331Z,101147.00
2018-09-01T09:40:08.488Z,101148.00
2018-09-01T09:42:38.517Z,101153.00
2018-09-01T09:45:08.680Z,101141.00
2018-09-01T09:47:38.800Z,101095.00
2018-09-01T09:50:09.159Z,101139.00
2018-09-01T09:52:39.100Z,101142.00
2018-09-01T09:55:10.172Z,101146.00
2018-09-01T09:57:41.111Z,101140.00
2018-09-01T10:00:12.470Z,101139.00
2018-09-01T10:02:43.034Z,101146.00
2018-09-01T10:05:13.805Z,101145.00
2018-09-01T10:07:43.838Z,101145.00
2018-09-01T10:10:14.511Z,101145.00
2018-09-01T10:12:45.693Z,101143.00
2018-09-01T10:15:15.843Z,101142.00
2018-09-01T10:17:45.956Z,101136.00
2018-09-01T10:20:16.106Z,101132.00
2018-09-01T10:22:46.211Z,101132.00
2018-09-01T10:25:16.412Z,101129.00
2018-09-01T10:27:47.203Z,101129.00
2018-09-01T10:30:17.391Z,101137.00
2018-09-01T10:32:48.099Z,101127.00
2018-09-01T10:35:18.247Z,101127.00
2018-09-01T10:37:48.374Z,101126.00
2018-09-01T10:40:19.107Z,101128.00
2018-09-01T10:42:49.181Z,101128.00
2018-09-01T10:45:19.427Z,101122.00
2018-09-01T10:47:50.646Z,101125.00
2018-09-01T10:50:21.301Z,101123.00
2018-09-01T10:52:52.403Z,101124.00
2018-09-01T10:55:22.985Z,101125.00
2018-09-01T10:57:53.056Z,101134.00
2018-09-01T11:00:23.186Z,101133.00
2018-09-01T11:02:55.052Z,101130.00
2018-09-01T11:05:26.211Z,101129.00
2018-09-01T11:07:57.016Z,101131.00
2018-09-01T11:10:28.790Z,101129.00
2018-09-01T11:12:59.799Z,101128.00
2018-09-01T11:15:31.107Z,101121.00
2018-09-01T11:18:02.018Z,101129.00
2018-09-01T11:20:32.287Z,101132.00
2018-09-01T11:23:02.385Z,101118.00
2018-09-01T11:25:32.661Z,101125.00
2018-09-01T11:28:02.787Z,101117.00
2018-09-01T11:30:33.158Z,101124.00
2018-09-01T11:33:03.496Z,101120.00
2018-09-01T11:35:33.943Z,101113.00
2018-09-01T11:38:03.913Z,101128.00
2018-09-01T11:40:34.217Z,101122.00
2018-09-01T11:43:04.588Z,101123.00
2018-09-01T11:45:34.595Z,101122.00
2018-09-01T11:48:04.701Z,101121.00
2018-09-01T11:50:35.375Z,101125.00
2018-09-01T11:53:06.516Z,101124.00
2018-09-01T11:55:37.279Z,101116.00
2018-09-01T11:58:07.627Z,101110.00
2018-09-01T12:00:38.034Z,101113.00
2018-09-01T12:03:08.667Z,101109.00
2018-09-01T12:05:39.236Z,101103.00
2018-09-01T12:08:09.715Z,101101.00
2018-09-01T12:10:40.009Z,101112.00
2018-09-01T12:13:10.683Z,101104.00
2018-09-01T12:15:40.869Z,101113.00
2018-09-01T12:18:11.883Z,101111.00
2018-09-01T12:20:42.476Z,101109.00
2018-09-01T12:23:12.485Z,101100.00
2018-09-01T12:25:42.735Z,101109.00
2018-09-01T12:28:13.326Z,101108.00
2018-09-01T12:30:43.390Z,101108.00
2018-09-01T12:33:14.170Z,101108.00
2018-09-01T12:35:44.491Z,101110.00
2018-09-01T12:38:15.132Z,101106.00
2018-09-01T12:40:45.351Z,101111.00
2018-09-01T12:43:15.186Z,101105.00
2018-09-01T12:45:45.488Z,101107.00
2018-09-01T12:48:15.604Z,101096.00
2018-09-01T12:50:45.820Z,101095.00
2018-09-01T12:53:16.156Z,101104.00
2018-09-01T12:55:46.295Z,101107.00
2018-09-01T12:58:16.613Z,101106.00
2018-09-01T13:00:47.465Z,101099.00
2018-09-01T13:03:17.558Z,101092.00
2018-09-01T13:05:48.234Z,101089.00
2018-09-01T13:08:18.374Z,101093.00
2018-09-01T13:10:48.515Z,101091.00
2018-09-01T13:13:18.827Z,101084.00
2018-09-01T13:15:48.967Z,101086.00
2018-09-01T13:18:19.729Z,101093.00
2018-09-01T13:20:49.883Z,101094.00
2018-09-01T13:23:20.896Z,101090.00
2018-09-01T13:25:51.006Z,101082.00
2018-09-01T13:28:22.382Z,101080.00
2018-09-01T13:30:52.637Z,101076.00
2018-09-01T13:33:22.831Z,101079.00
2018-09-01T13:35:53.168Z,101069.00
2018-09-01T13:38:23.255Z,101080.00
2018-09-01T13:40:53.348Z,101086.00
2018-09-01T13:43:23.515Z,101071.00
2018-09-01T13:45:53.537Z,101076.00
2018-09-01T13:48:23.783Z,101076.00
2018-09-01T13:50:53.991Z,101076.00
2018-09-01T13:53:27.613Z,101078.00
2018-09-01T13:55:58.604Z,101086.00
2018-09-01T13:58:28.884Z,101068.00
2018-09-01T14:00:59.410Z,101076.00
2018-09-01T14:03:29.699Z,101071.00
2018-09-01T14:06:00.079Z,101071.00
2018-09-01T14:08:30.108Z,101065.00
2018-09-01T14:11:00.552Z,101067.00
2018-09-01T14:13:30.796Z,101062.00
2018-09-01T14:16:00.756Z,101062.00
2018-09-01T14:18:31.552Z,101062.00
2018-09-01T14:21:01.846Z,101058.00
2018-09-01T14:23:31.697Z,101045.00
2018-09-01T14:26:02.051Z,101052.00
2018-09-01T14:28:32.910Z,101051.00
2018-09-01T14:31:03.092Z,101049.00
2018-09-01T14:33:33.979Z,101050.00
2018-09-01T14:36:04.354Z,101046.00
2018-09-01T14:38:34.798Z,101045.00
2018-09-01T14:41:04.929Z,101043.00
2018-09-01T14:43:35.307Z,101035.00
2018-09-01T14:46:05.393Z,101036.00
2018-09-01T14:48:36.079Z,101038.00
2018-09-01T14:51:06.420Z,101029.00
2018-09-01T14:53:37.132Z,101024.00
2018-09-01T14:56:07.894Z,101037.00
2018-09-01T14:58:37.866Z,101018.00
2018-09-01T15:01:07.736Z,101020.00
2018-09-01T15:03:38.031Z,101022.00
2018-09-01T15:06:08.043Z,101014.00
2018-09-01T15:08:38.191Z,101024.00
2018-09-01T15:11:08.163Z,101020.00
2018-09-01T15:13:38.417Z,101019.00
2018-09-01T15:16:08.991Z,101026.00
2018-09-01T15:18:39.789Z,101010.00
2018-09-01T15:21:09.971Z,101024.00
2018-09-01T15:23:40.730Z,101016.00
2018-09-01T15:26:11.260Z,101017.00
2018-09-01T15:28:42.498Z,101017.00
2018-09-01T15:31:12.466Z,101019.00
2018-09-01T15:33:42.513Z,101023.00
2018-09-01T15:36:12.446Z,101028.00
2018-09-01T15:38:42.627Z,101017.00
2018-09-01T15:41:12.690Z,101019.00
2018-09-01T15:43:43.237Z,101020.00
2018-09-01T15:46:13.156Z,101023.00
2018-09-01T15:48:43.360Z,101025.00
2018-09-01T15:51:13.913Z,101029.00
2018-09-01T15:53:44.260Z,101022.00
2018-09-01T15:56:15.053Z,101020.00
2018-09-01T15:58:45.100Z,101034.00
2018-09-01T16:01:15.725Z,101026.00
2018-09-01T16:03:46.006Z,101023.00
2018-09-01T16:06:16.056Z,101018.00
2018-09-01T16:08:46.851Z,101030.00
2018-09-01T16:11:17.186Z,101024.00
2018-09-01T16:13:47.326Z,101021.00
2018-09-01T16:16:17.701Z,101020.00
2018-09-01T16:18:47.863Z,101017.00
2018-09-01T16:21:18.057Z,101019.00
2018-09-01T16:23:48.328Z,101016.00
2018-09-01T16:26:18.590Z,101015.00
2018-09-01T16:28:48.776Z,101012.00
2018-09-01T16:31:18.955Z,101023.00
2018-09-01T16:33:49.204Z,101014.00
2018-09-01T16:36:19.466Z,101018.00
2018-09-01T16:38:49.721Z,101022.00
2018-09-01T16:41:19.915Z,101024.00
2018-09-01T16:43:50.120Z,101033.00
2018-09-01T16:46:20.342Z,101035.00
2018-09-01T16:48:50.391Z,101037.00
2018-09-01T16:51:20.591Z,101038.00
2018-09-01T16:53:50.823Z,101026.00
2018-09-01T16:56:20.923Z,101022.00
2018-09-01T16:58:51.066Z,101029.00
2018-09-01T17:01:21.366Z,101027.00
2018-09-01T17:03:51.556Z,101032.00
2018-09-01T17:06:21.706Z,101034.00
2018-09-01T17:08:51.913Z,101033.00
2018-09-01T17:11:21.860Z,101037.00
2018-09-01T17:13:52.025Z,101038.00
2018-09-01T17:16:22.097Z,101040.00
2018-09-01T17:18:52.297Z,101044.00
2018-09-01T17:21:22.516Z,101043.00
2018-09-01T17:23:52.883Z,101042.00
2018-09-01T17:26:23.189Z,101054.00
2018-09-01T17:31:38.342Z,101048.00
2018-09-01T17:34:11.785Z,101050.00
2018-09-01T17:36:42.101Z,101048.00
2018-09-01T17:39:13.354Z,101047.00
2018-09-01T17:41:44.153Z,101052.00
2018-09-01T17:44:14.644Z,101053.00
2018-09-01T17:46:45.182Z,101050.00
2018-09-01T17:49:15.554Z,101052.00
2018-09-01T17:51:46.379Z,101053.00
2018-09-01T17:54:16.590Z,101047.00
2018-09-01T17:56:46.820Z,101052.00
2018-09-01T17:59:17.056Z,101052.00
2018-09-01T18:01:47.520Z,101054.00
2018-09-01T18:04:17.731Z,101063.00
2018-09-01T18:06:48.020Z,101059.00
2018-09-01T18:09:18.593Z,101069.00
2018-09-01T18:11:48.955Z,101070.00
2018-09-01T18:14:20.082Z,101065.00
2018-09-01T18:16:51.231Z,101067.00
2018-09-01T18:19:21.394Z,101068.00
2018-09-01T18:21:51.782Z,101068.00
2018-09-01T18:24:22.061Z,101060.00
2018-09-01T18:26:53.097Z,101057.00
2018-09-01T18:29:29.899Z,101057.00
2018-09-01T18:31:59.980Z,101066.00
2018-09-01T18:34:32.460Z,101074.00
